Time;durP1;ratioP1;P1;durP2;ratioP2;P2;SDS_P1;SDS_P2;PMS_P1;PMS_P2;Temp;Humidity;BMP_temperature;BMP_pressure;BME280_temperature;BME280_humidity;BME280_pressure;Samples;Min_cycle;Max_cycle;Signal;HPM_P1;HPM_P2
2021/05/18 00:01:59;;;;;;;4.18;1.50;;;;;;;;;;5110633;27;20446;-72
2021/05/18 00:04:43;;;;;;;3.58;1.50;;;;;;;;;;5110525;27;20160;-73
2021/05/18 00:07:15;;;;;;;3.80;1.80;;;;;;;;;;5109170;28;20024;-73
2021/05/18 00:15:31;;;;;;;9.60;2.75;;;;;;;;;;5110575;27;20385;-72
2021/05/18 00:17:57;;;;;;;10.50;2.60;;;;;;;;;;5108874;28;20032;-72
2021/05/18 00:20:23;;;;;;;3.70;1.55;;;;;;;;;;5109020;28;20396;-72
2021/05/18 00:22:50;;;;;;;4.22;1.90;;;;;;;;;;5110403;28;20020;-72
2021/05/18 00:25:16;;;;;;;9.98;1.88;;;;;;;;;;5109978;28;20094;-72
2021/05/18 00:28:58;;;;;;;6.63;1.98;;;;;;;;;;5110465;27;20775;-73
2021/05/18 00:32:48;;;;;;;6.30;2.35;;;;;;;;;;5110553;27;20429;-73
2021/05/18 00:37:18;;;;;;;5.57;2.03;;;;;;;;;;5110114;27;20165;-72
2021/05/18 00:39:44;;;;;;;4.95;1.73;;;;;;;;;;5110417;28;20078;-72
2021/05/18 00:44:11;;;;;;;3.17;1.50;;;;;;;;;;5110512;27;20761;-72
2021/05/18 00:46:37;;;;;;;5.53;1.58;;;;;;;;;;5110483;28;20051;-72
2021/05/18 00:49:04;;;;;;;4.95;1.58;;;;;;;;;;5110443;28;20062;-72
2021/05/18 00:51:30;;;;;;;4.88;2.17;;;;;;;;;;5108987;28;20024;-72
2021/05/18 00:56:19;;;;;;;4.60;1.90;;;;;;;;;;5110478;27;20388;-72
2021/05/18 00:59:32;;;;;;;7.13;2.67;;;;;;;;;;5130570;27;20164;-72
2021/05/18 01:01:58;;;;;;;4.80;1.88;;;;;;;;;;5110415;28;20097;-72
2021/05/18 01:05:20;;;;;;;5.78;2.03;;;;;;;;;;5110183;27;20385;-72
2021/05/18 01:09:39;;;;;;;6.05;1.80;;;;;;;;;;5110523;27;20908;-72
2021/05/18 01:12:05;;;;;;;5.72;1.80;;;;;;;;;;5110674;28;20050;-72
2021/05/18 01:14:32;;;;;;;5.43;2.92;;;;;;;;;;5109953;28;20031;-72
2021/05/18 01:20:21;;;;;;;7.32;1.92;;;;;;;;;;5110147;27;20448;-72
2021/05/18 01:22:48;;;;;;;5.68;1.90;;;;;;;;;;5110403;28;20016;-73
2021/05/18 01:25:15;;;;;;;9.25;2.17;;;;;;;;;;5110441;28;20051;-72
2021/05/18 01:29:41;;;;;;;6.55;1.80;;;;;;;;;;5110698;27;20437;-72
2021/05/18 01:32:08;;;;;;;6.90;1.70;;;;;;;;;;5110507;28;20081;-72
2021/05/18 01:37:15;;;;;;;6.47;2.25;;;;;;;;;;5110515;27;20162;-72
2021/05/18 01:40:02;;;;;;;7.28;1.98;;;;;;;;;;5110497;28;20032;-72
2021/05/18 01:45:15;;;;;;;7.97;2.40;;;;;;;;;;5110710;28;20121;-73
2021/05/18 01:47:47;;;;;;;6.50;2.08;;;;;;;;;;5110076;28;20426;-73
2021/05/18 01:50:14;;;;;;;7.43;1.50;;;;;;;;;;5110372;28;20466;-72
2021/05/18 01:52:40;;;;;;;6.32;2.03;;;;;;;;;;5110180;28;20028;-73
2021/05/18 01:56:16;;;;;;;10.38;1.92;;;;;;;;;;5110114;27;20381;-73
2021/05/18 01:59:40;;;;;;;4.82;1.70;;;;;;;;;;5110512;27;20434;-73
2021/05/18 02:02:06;;;;;;;4.40;1.70;;;;;;;;;;5110107;28;20476;-72
2021/05/18 02:04:39;;;;;;;7.80;1.92;;;;;;;;;;5110382;28;20051;-74
2021/05/18 02:07:08;;;;;;;7.22;1.95;;;;;;;;;;5109298;28;20054;-73
2021/05/18 02:11:01;;;;;;;4.93;1.80;;;;;;;;;;5110542;27;20393;-72
2021/05/18 02:16:12;;;;;;;5.22;1.83;;;;;;;;;;5110141;27;20385;-72
2021/05/18 02:18:53;;;;;;;5.65;1.73;;;;;;;;;;5110484;28;20039;-72
2021/05/18 02:27:37;;;;;;;5.07;1.45;;;;;;;;;;5110674;27;20438;-73
2021/05/18 02:30:03;;;;;;;4.40;1.10;;;;;;;;;;5110172;28;20039;-72
2021/05/18 02:32:31;;;;;;;4.60;1.23;;;;;;;;;;5110517;28;20028;-72
2021/05/18 02:35:48;;;;;;;4.93;1.17;;;;;;;;;;5069904;28;20391;-72
2021/05/18 02:39:19;;;;;;;4.40;1.35;;;;;;;;;;5110463;27;20381;-73
2021/05/18 02:41:46;;;;;;;2.63;0.90;;;;;;;;;;5109140;28;20111;-72
2021/05/18 02:49:32;;;;;;;2.28;0.88;;;;;;;;;;5110772;28;20408;-72
2021/05/18 02:51:58;;;;;;;2.63;1.10;;;;;;;;;;5109970;28;20023;-72
2021/05/18 02:56:11;;;;;;;2.80;0.98;;;;;;;;;;5110471;27;20385;-73
2021/05/18 02:58:39;;;;;;;3.08;0.98;;;;;;;;;;5108814;28;20418;-74
2021/05/18 03:03:08;;;;;;;5.13;1.50;;;;;;;;;;5131068;27;20118;-73
2021/05/18 03:05:57;;;;;;;4.05;1.25;;;;;;;;;;5130713;27;20165;-73
2021/05/18 03:08:23;;;;;;;7.25;2.60;;;;;;;;;;5129922;28;20106;-73
2021/05/18 03:10:49;;;;;;;5.57;1.95;;;;;;;;;;5129692;28;20471;-73
2021/05/18 03:16:37;;;;;;;3.50;1.23;;;;;;;;;;5110533;27;20791;-72
2021/05/18 03:19:47;;;;;;;1.83;0.85;;;;;;;;;;5110126;27;20377;-73
2021/05/18 03:22:29;;;;;;;2.50;0.80;;;;;;;;;;5110939;27;20426;-73
2021/05/18 03:24:56;;;;;;;2.42;0.90;;;;;;;;;;5110771;28;20460;-73
2021/05/18 03:27:24;;;;;;;3.10;0.95;;;;;;;;;;5110195;28;20023;-73
2021/05/18 03:29:51;;;;;;;1.65;0.70;;;;;;;;;;5110606;28;20464;-73
2021/05/18 03:35:03;;;;;;;3.65;0.98;;;;;;;;;;5109908;28;20074;-73
2021/05/18 03:37:43;;;;;;;2.42;1.00;;;;;;;;;;5126094;28;20065;-73
2021/05/18 03:40:11;;;;;;;5.15;0.90;;;;;;;;;;5109653;28;20026;-73
2021/05/18 03:42:41;;;;;;;3.58;1.00;;;;;;;;;;5110142;28;20028;-73
2021/05/18 04:13:06;;;;;;;2.45;1.50;;;;;;;;;;5110487;27;20389;-73
2021/05/18 04:18:19;;;;;;;3.55;1.20;;;;;;;;;;5110369;28;20027;-72
2021/05/18 04:59:09;;;;;;;3.47;1.13;;;;;;;;;;5109979;27;20393;-73
2021/05/18 05:08:53;;;;;;;3.28;1.10;;;;;;;;;;5110432;28;20030;-68
2021/05/18 05:16:30;;;;;;;1.50;1.00;;;;;;;;;;5108498;28;20043;-65
2021/05/18 05:18:56;;;;;;;2.42;1.08;;;;;;;;;;5109334;28;20024;-65
2021/05/18 05:23:38;;;;;;;1.35;1.05;;;;;;;;;;5109812;27;20408;-67
2021/05/18 05:26:04;;;;;;;4.00;1.58;;;;;;;;;;5108003;28;20027;-66
2021/05/18 05:28:53;;;;;;;3.47;0.98;;;;;;;;;;5108414;27;20377;-66
2021/05/18 05:32:50;;;;;;;2.95;1.15;;;;;;;;;;5150075;27;20327;-66
2021/05/18 05:35:16;;;;;;;2.08;1.02;;;;;;;;;;5150084;27;20019;-67
2021/05/18 05:41:21;;;;;;;2.33;1.40;;;;;;;;;;5109780;27;20464;-66
2021/05/18 05:43:48;;;;;;;3.17;1.13;;;;;;;;;;5110166;28;20042;-68
2021/05/18 05:46:54;;;;;;;2.85;1.13;;;;;;;;;;5108503;27;20799;-66
2021/05/18 05:56:53;;;;;;;2.95;1.10;;;;;;;;;;5067840;28;20384;-67
2021/05/18 05:59:20;;;;;;;4.10;1.55;;;;;;;;;;5067753;28;20116;-66
2021/05/18 06:01:49;;;;;;;5.63;1.98;;;;;;;;;;5069263;28;20025;-67
2021/05/18 06:04:15;;;;;;;2.28;1.30;;;;;;;;;;5069434;28;20390;-67
2021/05/18 06:07:56;;;;;;;5.22;1.48;;;;;;;;;;5109859;27;20314;-67
2021/05/18 06:10:28;;;;;;;2.15;1.38;;;;;;;;;;5109071;28;20020;-67
2021/05/18 06:37:18;;;;;;;4.03;1.50;;;;;;;;;;5110194;27;20384;-71
2021/05/18 06:42:35;;;;;;;4.85;1.83;;;;;;;;;;5120982;28;20039;-71
2021/05/18 06:48:18;;;;;;;2.97;1.15;;;;;;;;;;5106768;28;20032;-74
2021/05/18 06:50:45;;;;;;;2.88;1.83;;;;;;;;;;5114362;28;20024;-76
2021/05/18 06:53:11;;;;;;;5.95;1.52;;;;;;;;;;5107227;28;20028;-76
2021/05/18 06:56:31;;;;;;;2.42;1.25;;;;;;;;;;5118521;27;20383;-77
2021/05/18 07:03:38;;;;;;;3.08;1.50;;;;;;;;;;5068922;28;20387;-77
2021/05/18 07:07:18;;;;;;;5.80;1.35;;;;;;;;;;5111097;27;20396;-75
2021/05/18 07:11:16;;;;;;;4.07;1.92;;;;;;;;;;5106054;27;21004;-77
2021/05/18 07:13:42;;;;;;;2.72;1.20;;;;;;;;;;5105411;28;20038;-77
2021/05/18 07:17:02;;;;;;;4.45;1.40;;;;;;;;;;5117975;27;20385;-77
2021/05/18 07:19:28;;;;;;;1.38;0.90;;;;;;;;;;5105424;28;20594;-75
2021/05/18 07:21:55;;;;;;;4.68;1.45;;;;;;;;;;5113512;28;20019;-76
2021/05/18 07:25:31;;;;;;;3.75;1.05;;;;;;;;;;5067909;28;20388;-75
2021/05/18 07:28:59;;;;;;;7.90;1.70;;;;;;;;;;5108988;27;20385;-77
2021/05/18 07:33:20;;;;;;;4.00;1.65;;;;;;;;;;5120759;27;20397;-76
2021/05/18 07:35:46;;;;;;;3.75;1.40;;;;;;;;;;5117637;28;20028;-74
2021/05/18 07:38:13;;;;;;;3.22;1.38;;;;;;;;;;5109803;28;20028;-72
2021/05/18 07:40:39;;;;;;;4.18;1.70;;;;;;;;;;5108184;28;20536;-73
2021/05/18 07:43:05;;;;;;;1.52;1.10;;;;;;;;;;5123137;28;20023;-76
2021/05/18 07:45:32;;;;;;;1.55;1.30;;;;;;;;;;5113058;28;20028;-75
2021/05/18 07:48:09;;;;;;;2.63;1.13;;;;;;;;;;5121472;28;20020;-75
2021/05/18 08:07:41;;;;;;;2.90;1.30;;;;;;;;;;5108702;28;20097;-72
2021/05/18 08:11:48;;;;;;;1.27;0.98;;;;;;;;;;5068593;28;20955;-75
2021/05/18 08:14:16;;;;;;;2.55;1.00;;;;;;;;;;5066373;28;20037;-73
2021/05/18 08:22:02;;;;;;;6.22;1.50;;;;;;;;;;5106976;27;20392;-73
2021/05/18 08:47:29;;;;;;;6.05;1.83;;;;;;;;;;5104784;28;20035;-71
2021/05/18 10:22:58;;;;;;;0.65;0.45;;;;;;;;;;5111222;27;20381;-75
2021/05/18 10:35:46;;;;;;;8.77;0.93;;;;;;;;;;5108272;28;20539;-73
2021/05/18 10:38:17;;;;;;;3.00;0.65;;;;;;;;;;5122482;28;20022;-72
2021/05/18 10:40:43;;;;;;;1.45;0.45;;;;;;;;;;5108350;28;20109;-72
2021/05/18 10:43:10;;;;;;;1.98;0.75;;;;;;;;;;5109242;28;20020;-73
2021/05/18 10:45:55;;;;;;;1.95;0.55;;;;;;;;;;5104245;28;20103;-74
2021/05/18 10:48:25;;;;;;;0.75;0.40;;;;;;;;;;5102295;28;20024;-73
2021/05/18 10:50:51;;;;;;;7.22;0.90;;;;;;;;;;5103603;28;20435;-72
2021/05/18 10:53:35;;;;;;;2.47;0.60;;;;;;;;;;5109581;28;20373;-73
2021/05/18 10:56:05;;;;;;;2.22;0.70;;;;;;;;;;5098021;28;20028;-73
2021/05/18 10:58:32;;;;;;;2.05;0.70;;;;;;;;;;5097907;28;20054;-73
2021/05/18 11:00:58;;;;;;;4.38;1.70;;;;;;;;;;5115267;28;20047;-72
2021/05/18 11:03:24;;;;;;;3.83;1.30;;;;;;;;;;5108613;28;20031;-73
2021/05/18 11:05:51;;;;;;;1.40;0.50;;;;;;;;;;5108794;28;20149;-74
2021/05/18 11:08:18;;;;;;;0.70;0.50;;;;;;;;;;5105279;28;20028;-73
2021/05/18 11:10:46;;;;;;;2.75;0.43;;;;;;;;;;5103559;28;20452;-71
2021/05/18 11:13:12;;;;;;;5.35;0.70;;;;;;;;;;5098627;28;20027;-73
2021/05/18 11:15:38;;;;;;;1.05;0.50;;;;;;;;;;5110406;28;20051;-72
2021/05/18 11:18:05;;;;;;;3.70;0.95;;;;;;;;;;5111033;28;20037;-71
2021/05/18 11:23:26;;;;;;;3.67;0.45;;;;;;;;;;5107431;28;20419;-72
2021/05/18 11:25:57;;;;;;;5.15;0.70;;;;;;;;;;5103172;28;20031;-73
2021/05/18 11:28:25;;;;;;;2.33;0.52;;;;;;;;;;5104953;28;20016;-73
2021/05/18 11:30:53;;;;;;;1.33;0.60;;;;;;;;;;5117334;28;20027;-71
2021/05/18 11:33:20;;;;;;;3.88;0.77;;;;;;;;;;5115480;28;20020;-70
2021/05/18 11:36:00;;;;;;;2.15;0.68;;;;;;;;;;5115449;28;20019;-69
2021/05/18 11:38:27;;;;;;;1.92;0.57;;;;;;;;;;5098480;28;20028;-71
2021/05/18 11:40:53;;;;;;;1.80;0.40;;;;;;;;;;5087081;28;20101;-70
2021/05/18 11:43:22;;;;;;;1.17;0.47;;;;;;;;;;5096667;28;20026;-71
2021/05/18 11:45:50;;;;;;;3.72;0.70;;;;;;;;;;5094667;28;20039;-70
2021/05/18 11:48:18;;;;;;;4.80;0.88;;;;;;;;;;5092832;28;20376;-71
2021/05/18 11:50:44;;;;;;;2.80;0.50;;;;;;;;;;5093603;28;20020;-71
2021/05/18 11:53:27;;;;;;;2.08;0.80;;;;;;;;;;5091022;28;20037;-70
2021/05/18 11:55:53;;;;;;;2.97;0.63;;;;;;;;;;5101215;28;20448;-70
2021/05/18 11:58:20;;;;;;;4.43;1.17;;;;;;;;;;5094318;28;20118;-71
2021/05/18 12:00:46;;;;;;;22.02;12.20;;;;;;;;;;5093153;28;20016;-70
2021/05/18 12:03:12;;;;;;;14.98;8.85;;;;;;;;;;5103772;28;20023;-71
2021/05/18 12:05:55;;;;;;;10.50;4.90;;;;;;;;;;5092080;28;20050;-71
2021/05/18 12:08:21;;;;;;;;;;;;;;;;;;5108748;28;20051;-70
2021/05/18 12:10:47;;;;;;;3.72;1.55;;;;;;;;;;5107223;28;19947;-70
2021/05/18 12:13:26;;;;;;;4.68;0.80;;;;;;;;;;5106078;28;20078;-70
2021/05/18 12:16:19;;;;;;;1.20;0.60;;;;;;;;;;5091771;28;20410;-70
2021/05/18 12:18:51;;;;;;;2.88;0.98;;;;;;;;;;5091842;28;20032;-72
2021/05/18 12:21:18;;;;;;;8.93;1.70;;;;;;;;;;5093916;28;20040;-70
2021/05/18 12:24:01;;;;;;;2.05;0.82;;;;;;;;;;5094191;28;20020;-71
2021/05/18 12:26:28;;;;;;;3.17;0.80;;;;;;;;;;5093965;28;20058;-71
2021/05/18 12:29:02;;;;;;;5.57;1.30;;;;;;;;;;5092998;28;20020;-72
2021/05/18 12:31:35;;;;;;;2.65;0.75;;;;;;;;;;5094506;28;20032;-71
2021/05/18 12:34:03;;;;;;;3.30;1.10;;;;;;;;;;5094355;28;20019;-72
2021/05/18 12:36:30;;;;;;;2.97;0.68;;;;;;;;;;5093937;28;20656;-71
2021/05/18 12:39:05;;;;;;;2.65;0.60;;;;;;;;;;5094247;28;20073;-71
2021/05/18 12:41:46;;;;;;;5.45;0.65;;;;;;;;;;5092753;28;20043;-71
2021/05/18 12:44:12;;;;;;;2.85;0.68;;;;;;;;;;5093195;28;20017;-71
2021/05/18 12:46:51;;;;;;;0.60;0.35;;;;;;;;;;5092697;28;20089;-69
2021/05/18 12:49:28;;;;;;;1.17;0.63;;;;;;;;;;5094952;28;20392;-70
2021/05/18 12:52:14;;;;;;;1.27;0.47;;;;;;;;;;5092382;28;20024;-71
2021/05/18 12:54:40;;;;;;;2.33;0.40;;;;;;;;;;5092589;28;20027;-71
2021/05/18 12:57:06;;;;;;;1.77;0.60;;;;;;;;;;5092043;28;20023;-70
2021/05/18 12:59:33;;;;;;;1.60;0.50;;;;;;;;;;5092513;28;20020;-71
2021/05/18 13:01:59;;;;;;;0.77;0.35;;;;;;;;;;5093694;28;20111;-72
2021/05/18 13:04:26;;;;;;;1.95;0.50;;;;;;;;;;5093264;28;20020;-71
2021/05/18 13:06:54;;;;;;;1.25;0.70;;;;;;;;;;5093684;28;20020;-70
2021/05/18 13:09:21;;;;;;;1.05;0.60;;;;;;;;;;5093808;28;20013;-69
2021/05/18 13:14:50;;;;;;;2.20;0.68;;;;;;;;;;5093653;28;20077;-70
2021/05/18 13:17:16;;;;;;;0.93;0.40;;;;;;;;;;5091557;28;20427;-70
2021/05/18 13:19:43;;;;;;;2.72;0.50;;;;;;;;;;5092070;28;20024;-70
2021/05/18 13:22:09;;;;;;;1.27;0.63;;;;;;;;;;5090967;28;20635;-69
2021/05/18 13:27:20;;;;;;;0.50;0.40;;;;;;;;;;5092212;28;20089;-69
2021/05/18 13:29:46;;;;;;;1.58;0.45;;;;;;;;;;5091068;28;20020;-69
2021/05/18 13:32:12;;;;;;;3.60;0.68;;;;;;;;;;5091208;28;20108;-68
2021/05/18 13:34:38;;;;;;;2.97;0.98;;;;;;;;;;5091547;28;20023;-70
2021/05/18 13:37:05;;;;;;;2.97;0.82;;;;;;;;;;5093132;28;20497;-70
2021/05/18 13:39:31;;;;;;;2.22;0.60;;;;;;;;;;5092826;28;20357;-71
2021/05/18 13:41:57;;;;;;;3.17;0.80;;;;;;;;;;5092913;28;20075;-72
2021/05/18 13:44:23;;;;;;;3.15;0.63;;;;;;;;;;5092979;28;20039;-71
2021/05/18 13:46:49;;;;;;;1.48;0.60;;;;;;;;;;5092602;28;20107;-71
2021/05/18 13:49:16;;;;;;;1.58;0.77;;;;;;;;;;5091895;28;20468;-71
2021/05/18 13:51:43;;;;;;;1.88;0.55;;;;;;;;;;5093138;28;20393;-70
2021/05/18 13:54:10;;;;;;;1.90;0.40;;;;;;;;;;5092476;28;20031;-71
2021/05/18 13:56:36;;;;;;;2.22;0.40;;;;;;;;;;5092785;28;20024;-71
2021/05/18 13:59:02;;;;;;;5.25;0.68;;;;;;;;;;5092692;28;20024;-72
2021/05/18 14:01:28;;;;;;;3.83;0.55;;;;;;;;;;5092737;28;20039;-71
2021/05/18 14:03:55;;;;;;;1.20;0.55;;;;;;;;;;5092811;28;20043;-70
2021/05/18 14:06:21;;;;;;;1.95;0.60;;;;;;;;;;5092417;28;20491;-70
2021/05/18 14:08:47;;;;;;;2.33;0.70;;;;;;;;;;5093033;28;20028;-71
2021/05/18 14:11:20;;;;;;;3.05;0.70;;;;;;;;;;5092878;28;20024;-71
2021/05/18 14:13:53;;;;;;;1.50;0.50;;;;;;;;;;5092396;28;20027;-71
2021/05/18 14:16:23;;;;;;;1.88;0.60;;;;;;;;;;5092691;28;20421;-70
2021/05/18 14:18:54;;;;;;;4.05;0.60;;;;;;;;;;5092629;28;20020;-70
2021/05/18 14:21:21;;;;;;;4.72;0.60;;;;;;;;;;5090665;28;20101;-70
2021/05/18 14:26:16;;;;;;;3.65;0.80;;;;;;;;;;5092705;28;20032;-70
2021/05/18 14:28:42;;;;;;;1.13;0.60;;;;;;;;;;5090930;28;20400;-70
2021/05/18 14:31:10;;;;;;;0.52;0.30;;;;;;;;;;5091197;28;20474;-71
2021/05/18 14:33:37;;;;;;;2.05;0.85;;;;;;;;;;5092327;28;20031;-69
2021/05/18 14:36:03;;;;;;;0.43;0.30;;;;;;;;;;5092073;28;20016;-70
2021/05/18 14:38:30;;;;;;;3.75;0.60;;;;;;;;;;5092350;28;20024;-70
2021/05/18 14:54:23;;;;;;;2.25;0.70;;;;;;;;;;5092303;28;20445;-71
2021/05/18 14:56:50;;;;;;;1.63;0.50;;;;;;;;;;5091764;28;20034;-71
2021/05/18 14:59:16;;;;;;;2.72;0.60;;;;;;;;;;5090872;28;20032;-71
2021/05/18 15:01:42;;;;;;;2.42;0.70;;;;;;;;;;5092143;28;20032;-71
2021/05/18 15:04:08;;;;;;;1.52;0.30;;;;;;;;;;5090480;28;20020;-71
2021/05/18 15:06:35;;;;;;;3.15;0.73;;;;;;;;;;5092297;28;20034;-71
2021/05/18 15:09:01;;;;;;;0.45;0.40;;;;;;;;;;5094742;28;20020;-72
2021/05/18 15:11:28;;;;;;;0.93;0.30;;;;;;;;;;5095860;28;20044;-72
2021/05/18 15:13:55;;;;;;;2.05;0.45;;;;;;;;;;5094625;28;20027;-72
2021/05/18 15:16:21;;;;;;;3.22;1.02;;;;;;;;;;5095422;28;20016;-71
2021/05/18 15:18:50;;;;;;;0.88;0.50;;;;;;;;;;5094529;28;20103;-72
2021/05/18 15:21:17;;;;;;;0.95;0.28;;;;;;;;;;5095541;28;20079;-71
2021/05/18 15:23:44;;;;;;;0.93;0.50;;;;;;;;;;5095422;28;20024;-72
2021/05/18 15:26:10;;;;;;;2.15;0.98;;;;;;;;;;5095734;28;20384;-71
2021/05/18 15:28:41;;;;;;;0.68;0.50;;;;;;;;;;5095858;28;20473;-71
2021/05/18 15:31:07;;;;;;;0.65;0.30;;;;;;;;;;5094136;28;20028;-71
2021/05/18 15:33:33;;;;;;;0.57;0.40;;;;;;;;;;5095563;28;20020;-71
2021/05/18 15:35:59;;;;;;;1.38;0.43;;;;;;;;;;5095518;28;20028;-71
2021/05/18 15:38:25;;;;;;;2.22;0.60;;;;;;;;;;5095177;28;20016;-71
2021/05/18 15:40:52;;;;;;;3.42;1.17;;;;;;;;;;5095271;28;20082;-71
2021/05/18 15:43:18;;;;;;;1.88;0.65;;;;;;;;;;5095227;28;20024;-71
2021/05/18 15:45:44;;;;;;;0.73;0.30;;;;;;;;;;5094870;28;20027;-71
2021/05/18 15:48:10;;;;;;;1.38;0.93;;;;;;;;;;5095420;28;20046;-71
2021/05/18 15:50:37;;;;;;;1.48;0.40;;;;;;;;;;5095454;28;20496;-71
2021/05/18 15:53:03;;;;;;;1.75;0.45;;;;;;;;;;5093353;28;20032;-72
2021/05/18 15:55:29;;;;;;;3.60;0.57;;;;;;;;;;5093872;28;20062;-70
2021/05/18 15:57:55;;;;;;;2.10;0.30;;;;;;;;;;5095212;28;20032;-72
2021/05/18 16:00:22;;;;;;;1.65;0.40;;;;;;;;;;5093385;28;20032;-71
2021/05/18 16:02:48;;;;;;;3.10;0.63;;;;;;;;;;5095097;28;20028;-72
2021/05/18 16:05:14;;;;;;;0.73;0.60;;;;;;;;;;5094989;28;20027;-71
2021/05/18 16:07:43;;;;;;;1.17;0.60;;;;;;;;;;5094644;28;20031;-71
2021/05/18 16:10:10;;;;;;;0.68;0.30;;;;;;;;;;5093810;28;20493;-71
2021/05/18 16:12:36;;;;;;;1.35;0.50;;;;;;;;;;5094657;28;20024;-71
2021/05/18 16:15:03;;;;;;;0.82;0.32;;;;;;;;;;5093422;28;20107;-71
2021/05/18 16:17:29;;;;;;;1.33;0.63;;;;;;;;;;5093461;28;20024;-71
2021/05/18 16:19:55;;;;;;;0.93;0.50;;;;;;;;;;5093965;28;20052;-72
2021/05/18 16:22:22;;;;;;;1.48;0.52;;;;;;;;;;5094557;28;20392;-70
2021/05/18 16:24:48;;;;;;;1.48;0.80;;;;;;;;;;5094588;28;20024;-71
2021/05/18 16:27:17;;;;;;;2.95;0.70;;;;;;;;;;5094113;28;20095;-71
2021/05/18 16:29:44;;;;;;;0.47;0.40;;;;;;;;;;5094747;28;20016;-70
2021/05/18 16:32:11;;;;;;;2.25;0.88;;;;;;;;;;5094594;28;20472;-72
2021/05/18 16:34:37;;;;;;;2.15;0.95;;;;;;;;;;5093991;28;20055;-72
2021/05/18 16:37:04;;;;;;;1.67;0.73;;;;;;;;;;5092967;28;20024;-71
2021/05/18 16:39:30;;;;;;;2.20;0.95;;;;;;;;;;5094247;28;20077;-71
2021/05/18 16:41:56;;;;;;;1.65;0.90;;;;;;;;;;5092460;28;20077;-71
2021/05/18 16:44:23;;;;;;;1.67;1.00;;;;;;;;;;5094116;28;20020;-71
2021/05/18 16:46:50;;;;;;;8.30;2.17;;;;;;;;;;5092718;28;20024;-71
2021/05/18 16:49:17;;;;;;;3.95;0.65;;;;;;;;;;5092160;28;20024;-71
2021/05/18 16:51:44;;;;;;;4.75;0.80;;;;;;;;;;5094495;28;20073;-70
2021/05/18 16:54:11;;;;;;;2.55;0.98;;;;;;;;;;5094039;28;20016;-71
2021/05/18 16:56:38;;;;;;;1.92;0.80;;;;;;;;;;5093489;28;20020;-72
2021/05/18 16:59:06;;;;;;;3.35;1.10;;;;;;;;;;5093926;28;20028;-71
2021/05/18 17:01:32;;;;;;;2.80;1.00;;;;;;;;;;5092438;28;20105;-71
2021/05/18 17:05:31;;;;;;;3.35;1.25;;;;;;;;;;5110331;27;20426;-70
2021/05/18 17:08:02;;;;;;;4.13;1.35;;;;;;;;;;5110604;28;20027;-70
2021/05/18 17:10:28;;;;;;;4.05;1.50;;;;;;;;;;5110157;28;20476;-70
2021/05/18 17:12:55;;;;;;;1.70;0.80;;;;;;;;;;5110307;28;20074;-70
2021/05/18 17:15:23;;;;;;;3.40;1.27;;;;;;;;;;5108919;28;20682;-70
2021/05/18 17:17:50;;;;;;;5.50;1.23;;;;;;;;;;5109866;28;20028;-70
2021/05/18 17:20:16;;;;;;;7.00;1.20;;;;;;;;;;5108919;28;20426;-70
2021/05/18 17:22:42;;;;;;;3.45;1.25;;;;;;;;;;5110141;28;20031;-70
2021/05/18 17:27:04;;;;;;;2.25;0.77;;;;;;;;;;5110423;27;20778;-70
2021/05/18 17:29:31;;;;;;;2.17;1.15;;;;;;;;;;5109298;28;20024;-70
2021/05/18 17:31:57;;;;;;;3.03;1.20;;;;;;;;;;5109978;28;20016;-70
2021/05/18 17:34:24;;;;;;;4.47;1.30;;;;;;;;;;5110229;28;20098;-70
2021/05/18 17:36:52;;;;;;;3.17;1.70;;;;;;;;;;5110290;28;20095;-70
2021/05/18 17:39:24;;;;;;;3.35;1.25;;;;;;;;;;5109806;28;20024;-70
2021/05/18 17:41:50;;;;;;;9.25;1.40;;;;;;;;;;5108860;28;20040;-70
2021/05/18 17:44:17;;;;;;;3.45;1.48;;;;;;;;;;5109894;28;20031;-70
2021/05/18 17:46:43;;;;;;;4.45;1.23;;;;;;;;;;5110120;28;20104;-69
2021/05/18 17:50:16;;;;;;;8.77;2.47;;;;;;;;;;5110405;27;20747;-70
2021/05/18 17:52:43;;;;;;;7.20;2.08;;;;;;;;;;5109980;28;20463;-70
2021/05/18 17:55:10;;;;;;;4.53;1.63;;;;;;;;;;5110300;28;20032;-70
2021/05/18 17:57:37;;;;;;;8.30;1.67;;;;;;;;;;5110379;28;20042;-70
2021/05/18 18:00:06;;;;;;;4.38;1.40;;;;;;;;;;5109834;28;20073;-70
2021/05/18 18:02:33;;;;;;;3.20;1.30;;;;;;;;;;5110136;28;20095;-70
2021/05/18 18:04:59;;;;;;;2.33;1.38;;;;;;;;;;5110163;28;20042;-71
2021/05/18 18:07:25;;;;;;;3.45;1.45;;;;;;;;;;5109722;28;20078;-70
2021/05/18 18:09:53;;;;;;;2.58;1.20;;;;;;;;;;5110206;28;20062;-70
2021/05/18 18:14:29;;;;;;;4.07;1.30;;;;;;;;;;5109923;27;20419;-69
2021/05/18 18:16:55;;;;;;;3.65;1.58;;;;;;;;;;5110377;28;20035;-70
2021/05/18 18:21:19;;;;;;;8.98;2.17;;;;;;;;;;5109921;27;20430;-69
2021/05/18 18:23:45;;;;;;;7.90;2.67;;;;;;;;;;5109019;28;20035;-68
2021/05/18 18:28:18;;;;;;;5.97;2.30;;;;;;;;;;5110012;27;20397;-68
2021/05/18 18:30:45;;;;;;;6.72;1.60;;;;;;;;;;5110332;28;20027;-69
2021/05/18 18:33:11;;;;;;;7.22;1.92;;;;;;;;;;5110252;28;20031;-70
2021/05/18 18:35:38;;;;;;;3.35;0.90;;;;;;;;;;5110328;28;20472;-70
2021/05/18 18:38:07;;;;;;;3.92;1.05;;;;;;;;;;5109038;28;20105;-70
2021/05/18 18:41:32;;;;;;;4.10;1.33;;;;;;;;;;5110174;27;20381;-69
2021/05/18 18:44:11;;;;;;;0.90;0.70;;;;;;;;;;5110642;27;20373;-70
2021/05/18 18:46:38;;;;;;;1.88;1.23;;;;;;;;;;5109330;28;20028;-70
2021/05/18 18:49:11;;;;;;;2.13;1.02;;;;;;;;;;5109948;28;20028;-70
2021/05/18 18:51:38;;;;;;;2.70;1.00;;;;;;;;;;5110473;28;20020;-70
2021/05/18 18:54:05;;;;;;;4.10;1.10;;;;;;;;;;5108994;28;20020;-71
2021/05/18 18:56:31;;;;;;;5.78;2.47;;;;;;;;;;5109821;28;20038;-70
2021/05/18 18:58:58;;;;;;;10.57;3.38;;;;;;;;;;5110208;28;20019;-71
2021/05/18 19:04:42;;;;;;;4.18;1.67;;;;;;;;;;5110591;27;20392;-69
2021/05/18 19:13:25;;;;;;;1.63;0.70;;;;;;;;;;5110402;28;20101;-71
2021/05/18 19:15:52;;;;;;;3.83;1.52;;;;;;;;;;5091648;28;20039;-70
2021/05/18 19:18:18;;;;;;;1.70;0.82;;;;;;;;;;5110312;28;20024;-69
2021/05/18 19:20:57;;;;;;;4.75;1.13;;;;;;;;;;5069825;28;20387;-70
2021/05/18 19:23:24;;;;;;;1.52;0.77;;;;;;;;;;5069638;28;20587;-72
2021/05/18 19:26:32;;;;;;;2.08;1.10;;;;;;;;;;5110581;27;20446;-70
2021/05/18 19:28:58;;;;;;;2.13;0.98;;;;;;;;;;5110454;28;20034;-71
2021/05/18 19:32:58;;;;;;;2.10;0.88;;;;;;;;;;5110443;27;20389;-70
2021/05/18 19:43:31;;;;;;;1.30;0.80;;;;;;;;;;5110559;27;20176;-71
2021/05/18 19:45:53;;;;;;;2.20;1.00;;;;;;;;;;5104372;28;20050;-70
2021/05/18 19:48:24;;;;;;;3.58;1.33;;;;;;;;;;5110524;28;20020;-71
2021/05/18 19:51:22;;;;;;;2.45;0.80;;;;;;;;;;5110037;27;20434;-70
2021/05/18 19:53:50;;;;;;;2.53;0.93;;;;;;;;;;5109268;28;20032;-71
2021/05/18 20:15:43;;;;;;;2.42;0.70;;;;;;;;;;5049926;28;20033;-72
2021/05/18 20:19:26;;;;;;;1.55;0.73;;;;;;;;;;5109913;27;20429;-70
2021/05/18 20:23:40;;;;;;;2.20;0.93;;;;;;;;;;5110523;27;20714;-72
2021/05/18 20:26:06;;;;;;;2.70;0.70;;;;;;;;;;5110253;28;20057;-71
2021/05/18 20:28:33;;;;;;;5.72;1.05;;;;;;;;;;5110315;28;20066;-71
2021/05/18 20:31:00;;;;;;;0.75;0.60;;;;;;;;;;5109031;28;20023;-71
2021/05/18 20:33:45;;;;;;;1.70;0.80;;;;;;;;;;5109997;28;20047;-71
2021/05/18 20:41:00;;;;;;;2.15;0.90;;;;;;;;;;5110052;27;20784;-71
2021/05/18 20:43:26;;;;;;;3.42;1.02;;;;;;;;;;5109297;28;20115;-71
2021/05/18 20:49:11;;;;;;;4.85;1.63;;;;;;;;;;5109941;27;20389;-72
2021/05/18 20:53:27;;;;;;;2.75;0.85;;;;;;;;;;5110415;27;20377;-72
2021/05/18 20:55:53;;;;;;;2.28;0.82;;;;;;;;;;5108617;28;20039;-72
2021/05/18 20:59:37;;;;;;;1.80;0.77;;;;;;;;;;5110502;27;20446;-72
2021/05/18 21:05:43;;;;;;;6.20;1.25;;;;;;;;;;5110625;27;20377;-71
2021/05/18 21:13:16;;;;;;;2.80;0.90;;;;;;;;;;5110374;27;20389;-72
2021/05/18 21:15:49;;;;;;;1.10;0.80;;;;;;;;;;5110401;28;20035;-72
2021/05/18 21:19:16;;;;;;;1.73;0.95;;;;;;;;;;5110433;27;20384;-70
2021/05/18 21:21:43;;;;;;;4.25;1.38;;;;;;;;;;5110740;28;20024;-70
2021/05/18 21:24:09;;;;;;;1.95;0.85;;;;;;;;;;5110108;28;20020;-71
2021/05/18 21:26:35;;;;;;;1.63;0.90;;;;;;;;;;5110515;28;20095;-71
2021/05/18 21:29:02;;;;;;;4.82;1.17;;;;;;;;;;5108633;28;20426;-71
2021/05/18 21:31:28;;;;;;;4.43;1.23;;;;;;;;;;5110221;28;20485;-70
2021/05/18 21:33:54;;;;;;;3.63;1.33;;;;;;;;;;5108965;28;20016;-70
2021/05/18 21:36:20;;;;;;;4.88;1.23;;;;;;;;;;5109703;28;20545;-72
2021/05/18 21:38:46;;;;;;;2.75;1.00;;;;;;;;;;5108768;28;20139;-70
2021/05/18 21:41:13;;;;;;;2.00;1.08;;;;;;;;;;5110118;28;20043;-71
2021/05/18 21:43:39;;;;;;;1.80;1.00;;;;;;;;;;5108476;28;20028;-71
2021/05/18 21:46:06;;;;;;;5.53;0.90;;;;;;;;;;5110246;28;20474;-71
2021/05/18 21:51:55;;;;;;;3.00;1.30;;;;;;;;;;5130494;27;20147;-70
2021/05/18 21:54:21;;;;;;;1.67;0.80;;;;;;;;;;5110519;28;20101;-71
2021/05/18 21:57:13;;;;;;;3.00;0.77;;;;;;;;;;5110064;27;20381;-71
2021/05/18 22:03:25;;;;;;;1.85;0.80;;;;;;;;;;5110488;27;20381;-70
2021/05/18 22:05:52;;;;;;;1.55;0.73;;;;;;;;;;5110258;28;20454;-70
2021/05/18 22:09:30;;;;;;;1.83;0.55;;;;;;;;;;5110407;27;20950;-71
2021/05/18 22:28:28;;;;;;;1.20;0.50;;;;;;;;;;5110608;27;20385;-69
2021/05/18 22:34:14;;;;;;;2.30;0.68;;;;;;;;;;5110220;27;20377;-70
2021/05/18 22:36:40;;;;;;;1.50;0.63;;;;;;;;;;5126291;28;20039;-69
2021/05/18 22:39:10;;;;;;;1.88;0.63;;;;;;;;;;5110424;28;20024;-69
2021/05/18 22:46:13;;;;;;;2.67;0.95;;;;;;;;;;5110614;27;20946;-69
2021/05/18 22:51:14;;;;;;;6.25;0.82;;;;;;;;;;5110944;27;20389;-71
2021/05/18 22:56:40;;;;;;;1.55;0.52;;;;;;;;;;5152121;27;20362;-69
2021/05/18 22:59:06;;;;;;;0.52;0.45;;;;;;;;;;5130859;28;20034;-71